createdAt,value
2019-03-23T00:01:53.703Z,10.20
2019-03-23T00:04:21.961Z,10.58
2019-03-23T00:06:50.243Z,11.25
2019-03-23T00:09:19.080Z,11.65
2019-03-23T00:11:47.362Z,10.90
2019-03-23T00:14:15.624Z,10.55
2019-03-23T00:16:43.908Z,11.25
2019-03-23T00:19:12.167Z,11.88
2019-03-23T00:21:40.447Z,12.68
2019-03-23T00:24:08.711Z,11.80
2019-03-23T00:26:36.986Z,12.07
2019-03-23T00:29:05.243Z,13.15
2019-03-23T00:31:33.522Z,12.30
2019-03-23T00:34:01.778Z,12.40
2019-03-23T00:36:30.062Z,11.93
2019-03-23T00:38:58.679Z,12.20
2019-03-23T00:41:26.954Z,12.47
2019-03-23T00:43:55.211Z,12.23
2019-03-23T00:46:23.490Z,13.15
2019-03-23T00:48:51.747Z,12.53
2019-03-23T00:51:21.088Z,11.75
2019-03-23T00:53:50.019Z,12.40
2019-03-23T00:56:18.310Z,12.43
2019-03-23T00:58:46.607Z,12.20
2019-03-23T01:01:15.059Z,12.65
2019-03-23T01:03:43.338Z,12.13
2019-03-23T01:06:12.385Z,12.20
2019-03-23T01:08:41.314Z,12.15
2019-03-23T01:11:09.595Z,11.60
2019-03-23T01:13:37.855Z,10.45
2019-03-23T01:16:06.110Z,10.13
2019-03-23T01:18:35.063Z,10.93
2019-03-23T01:21:03.593Z,10.08
2019-03-23T01:23:32.633Z,9.85
2019-03-23T01:26:00.919Z,10.03
2019-03-23T01:28:29.168Z,9.98
2019-03-23T01:30:57.990Z,9.98
2019-03-23T01:33:26.265Z,9.98
2019-03-23T01:35:54.517Z,9.28
2019-03-23T01:38:23.365Z,9.58
2019-03-23T01:40:51.619Z,8.73
2019-03-23T01:43:20.666Z,9.15
2019-03-23T01:45:49.487Z,9.03
2019-03-23T01:48:17.772Z,8.13
2019-03-23T01:50:46.019Z,9.13
2019-03-23T01:53:14.578Z,8.45
2019-03-23T01:55:42.829Z,8.33
2019-03-23T01:58:11.106Z,8.53
2019-03-23T02:00:39.357Z,8.55
2019-03-23T02:03:07.632Z,8.80
2019-03-23T02:05:35.886Z,8.00
2019-03-23T02:08:04.162Z,8.65
2019-03-23T02:10:32.417Z,8.03
2019-03-23T02:13:00.691Z,8.03
2019-03-23T02:15:29.281Z,8.38
2019-03-23T02:17:58.324Z,7.92
2019-03-23T02:20:26.581Z,7.25
2019-03-23T02:22:54.839Z,7.35
2019-03-23T02:25:23.087Z,8.28
2019-03-23T02:27:51.361Z,7.85
2019-03-23T02:30:20.691Z,7.62
2019-03-23T02:32:49.017Z,7.58
2019-03-23T02:35:17.291Z,7.25
2019-03-23T02:37:45.569Z,7.37
2019-03-23T02:40:13.813Z,7.70
2019-03-23T02:42:42.852Z,7.80
2019-03-23T02:45:12.144Z,7.50
2019-03-23T02:47:40.512Z,7.50
2019-03-23T02:50:10.059Z,7.30
2019-03-23T02:52:38.400Z,7.40
2019-03-23T02:55:08.249Z,7.67
2019-03-23T02:57:36.535Z,7.67
2019-03-23T03:00:07.972Z,7.65
2019-03-23T03:02:36.245Z,7.45
2019-03-23T03:05:06.837Z,8.03
2019-03-23T03:07:42.102Z,7.47
2019-03-23T03:10:10.091Z,7.67
2019-03-23T03:12:38.938Z,7.78
2019-03-23T03:15:08.433Z,7.87
2019-03-23T03:17:36.706Z,7.77
2019-03-23T03:20:09.481Z,8.58
2019-03-23T03:22:37.750Z,7.20
2019-03-23T03:25:07.246Z,8.23
2019-03-23T03:27:35.555Z,7.90
2019-03-23T03:30:05.145Z,7.83
2019-03-23T03:32:33.425Z,8.33
2019-03-23T03:35:01.785Z,7.60
2019-03-23T03:37:30.029Z,7.85
2019-03-23T03:39:58.285Z,7.35
2019-03-23T03:42:26.566Z,7.25
2019-03-23T03:44:54.819Z,7.33
2019-03-23T03:47:23.104Z,7.80
2019-03-23T03:49:51.350Z,7.72
2019-03-23T03:52:19.627Z,7.65
2019-03-23T03:54:47.872Z,7.87
2019-03-23T03:57:16.144Z,7.70
2019-03-23T03:59:44.386Z,7.20
2019-03-23T04:02:12.662Z,7.90
2019-03-23T04:04:40.924Z,7.70
2019-03-23T04:07:09.783Z,8.45
2019-03-23T04:09:40.447Z,7.78
2019-03-23T04:12:08.871Z,8.05
2019-03-23T04:14:37.121Z,8.25
2019-03-23T04:17:05.386Z,8.78
2019-03-23T04:19:33.651Z,9.43
2019-03-23T04:22:01.904Z,9.75
2019-03-23T04:24:30.193Z,9.75
2019-03-23T04:26:58.716Z,9.25
2019-03-23T04:29:27.755Z,9.93
2019-03-23T04:31:55.996Z,9.90
2019-03-23T04:34:24.276Z,9.53
2019-03-23T04:36:52.524Z,9.53
2019-03-23T04:39:20.838Z,9.78
2019-03-23T04:41:49.090Z,11.33
2019-03-23T04:44:17.365Z,10.85
2019-03-23T04:46:45.617Z,10.93
2019-03-23T04:49:13.892Z,12.00
2019-03-23T04:51:42.150Z,12.07
2019-03-23T04:54:10.433Z,12.90
2019-03-23T04:56:38.687Z,12.35
2019-03-23T04:59:06.971Z,14.80
2019-03-23T05:01:35.998Z,13.48
2019-03-23T05:04:04.274Z,14.20
2019-03-23T05:06:32.529Z,15.95
2019-03-23T05:09:00.811Z,19.75
2019-03-23T05:11:29.069Z,21.60
2019-03-23T05:13:57.344Z,28.87
2019-03-23T05:16:25.608Z,45.88
2019-03-23T05:18:53.894Z,47.95
2019-03-23T05:21:22.924Z,45.60
2019-03-23T05:23:51.202Z,45.78
2019-03-23T05:26:19.463Z,48.90
2019-03-23T05:28:47.742Z,50.25
2019-03-23T05:31:16.057Z,53.05
2019-03-23T05:33:44.344Z,54.00
2019-03-23T05:36:12.605Z,49.33
2019-03-23T05:38:44.561Z,43.30
2019-03-23T05:41:11.438Z,35.85
2019-03-23T05:43:39.726Z,33.38
2019-03-23T05:46:07.986Z,35.65
2019-03-23T05:48:36.832Z,35.75
2019-03-23T05:51:05.661Z,40.25
2019-03-23T05:53:33.937Z,44.40
2019-03-23T05:56:02.193Z,44.75
2019-03-23T05:58:30.470Z,47.50
2019-03-23T06:01:00.065Z,44.77
2019-03-23T06:03:28.346Z,43.45
2019-03-23T06:05:56.601Z,44.85
2019-03-23T06:08:24.896Z,43.23
2019-03-23T06:10:53.143Z,43.40
2019-03-23T06:13:21.429Z,40.78
2019-03-23T06:15:50.247Z,41.20
2019-03-23T06:18:18.526Z,31.30
2019-03-23T06:20:46.793Z,31.62
2019-03-23T06:23:15.080Z,32.38
2019-03-23T06:25:43.907Z,29.32
2019-03-23T06:28:12.188Z,24.87
2019-03-23T06:30:41.012Z,21.17
2019-03-23T06:33:10.066Z,21.00
2019-03-23T06:35:38.323Z,19.10
2019-03-23T06:38:06.611Z,18.07
2019-03-23T06:40:34.870Z,18.45
2019-03-23T06:43:03.922Z,18.60
2019-03-23T06:45:32.180Z,20.35
2019-03-23T06:48:00.462Z,20.50
2019-03-23T06:50:28.719Z,21.27
2019-03-23T06:52:57.003Z,21.40
2019-03-23T06:55:25.257Z,24.15
2019-03-23T06:57:53.584Z,25.17
2019-03-23T07:00:21.803Z,32.85
2019-03-23T07:02:50.056Z,41.85
2019-03-23T07:05:18.343Z,44.67
2019-03-23T07:07:47.167Z,45.38
2019-03-23T07:10:15.614Z,46.60
2019-03-23T07:12:43.872Z,49.77
2019-03-23T07:15:19.989Z,47.10
2019-03-23T07:17:42.305Z,45.00
2019-03-23T07:20:12.521Z,43.58
2019-03-23T07:22:40.778Z,42.98
2019-03-23T07:25:10.697Z,44.08
2019-03-23T07:27:38.952Z,47.53
2019-03-23T07:30:17.752Z,45.17
2019-03-23T07:32:46.008Z,47.15
2019-03-23T07:35:14.726Z,50.67
2019-03-23T07:37:43.012Z,50.20
2019-03-23T07:40:12.249Z,54.50
2019-03-23T07:42:40.512Z,53.73
2019-03-23T07:45:12.051Z,60.52
2019-03-23T07:47:40.305Z,58.45
2019-03-23T07:50:10.429Z,60.67
2019-03-23T07:52:38.693Z,61.05
2019-03-23T07:55:14.960Z,62.98
2019-03-23T07:57:43.381Z,59.93
2019-03-23T08:00:22.122Z,60.80
2019-03-23T08:02:50.452Z,58.65
2019-03-23T08:05:18.735Z,60.92
2019-03-23T08:07:46.989Z,61.95
2019-03-23T08:10:31.622Z,62.43
2019-03-23T08:13:00.181Z,56.77
2019-03-23T08:15:28.451Z,63.13
2019-03-23T08:17:56.708Z,57.45
2019-03-23T08:20:25.463Z,57.90
2019-03-23T08:22:54.465Z,64.42
2019-03-23T08:25:22.749Z,62.95
2019-03-23T08:27:51.012Z,64.55
2019-03-23T08:30:19.304Z,60.28
2019-03-23T08:32:47.564Z,60.58
2019-03-23T08:35:16.423Z,59.03
2019-03-23T08:37:44.678Z,60.23
2019-03-23T08:40:13.330Z,57.83
2019-03-23T08:42:41.596Z,57.05
2019-03-23T08:45:09.879Z,59.23
2019-03-23T08:47:38.144Z,59.27
2019-03-23T08:50:06.995Z,58.02
2019-03-23T08:52:35.255Z,57.13
2019-03-23T08:55:03.704Z,59.33
2019-03-23T08:57:31.966Z,54.38
2019-03-23T09:00:00.327Z,57.58
2019-03-23T09:02:28.583Z,60.73
2019-03-23T09:04:56.872Z,60.03
2019-03-23T09:07:25.129Z,61.25
2019-03-23T09:09:59.110Z,56.85
2019-03-23T09:12:23.415Z,61.88
2019-03-23T09:14:51.700Z,56.77
2019-03-23T09:17:19.953Z,56.88
2019-03-23T09:19:48.577Z,56.08
2019-03-23T09:22:16.840Z,57.13
2019-03-23T09:24:45.433Z,55.35
2019-03-23T09:27:13.691Z,58.20
2019-03-23T09:29:41.983Z,55.40
2019-03-23T09:32:10.249Z,53.42
2019-03-23T09:34:38.571Z,54.13
2019-03-23T09:37:06.826Z,54.65
2019-03-23T09:39:35.083Z,53.78
2019-03-23T09:42:03.367Z,49.42
2019-03-23T09:44:31.637Z,55.08
2019-03-23T09:47:00.480Z,54.03
2019-03-23T09:49:30.079Z,55.90
2019-03-23T09:51:58.368Z,56.48
2019-03-23T09:54:27.394Z,57.25
2019-03-23T09:56:56.919Z,59.75
2019-03-23T09:59:25.186Z,55.33
2019-03-23T10:01:53.486Z,56.73
2019-03-23T10:04:21.752Z,55.30
2019-03-23T10:06:50.054Z,57.55
2019-03-23T10:09:18.317Z,56.90
2019-03-23T10:11:46.598Z,56.37
2019-03-23T10:14:14.854Z,58.40
2019-03-23T10:16:43.712Z,56.98
2019-03-23T10:19:12.862Z,54.88
2019-03-23T10:21:41.141Z,55.38
2019-03-23T10:24:09.405Z,56.68
2019-03-23T10:26:37.690Z,56.68
2019-03-23T10:29:05.953Z,52.45
2019-03-23T10:31:34.237Z,55.55
2019-03-23T10:34:02.498Z,56.68
2019-03-23T10:36:30.785Z,55.30
2019-03-23T10:38:59.776Z,47.93
2019-03-23T10:41:28.065Z,47.62
2019-03-23T10:43:56.327Z,47.25
2019-03-23T10:46:25.175Z,48.55
2019-03-23T10:48:53.551Z,46.90
2019-03-23T10:51:22.409Z,48.55
2019-03-23T10:53:51.440Z,47.85
2019-03-23T10:56:19.725Z,47.08
2019-03-23T10:58:47.988Z,41.92
2019-03-23T11:01:16.276Z,48.00
2019-03-23T11:03:44.534Z,43.87
2019-03-23T11:06:12.822Z,46.77
2019-03-23T11:08:41.853Z,45.43
2019-03-23T11:11:10.135Z,46.08
2019-03-23T11:13:39.167Z,44.53
2019-03-23T11:16:07.449Z,45.75
2019-03-23T11:18:37.730Z,47.08
2019-03-23T11:21:06.045Z,46.48
2019-03-23T11:23:34.302Z,48.08
2019-03-23T11:26:03.154Z,47.40
2019-03-23T11:28:31.437Z,45.63
2019-03-23T11:30:59.849Z,48.08
2019-03-23T11:33:28.456Z,49.30
2019-03-23T11:35:58.037Z,49.50
2019-03-23T11:38:26.592Z,49.27
2019-03-23T11:40:55.349Z,49.18
2019-03-23T11:43:23.719Z,46.68
2019-03-23T11:45:52.656Z,46.80
2019-03-23T11:48:21.556Z,48.30
2019-03-23T11:50:49.770Z,48.02
2019-03-23T11:53:18.054Z,48.00
2019-03-23T11:55:46.317Z,45.52
2019-03-23T11:58:14.818Z,44.83
2019-03-23T12:00:43.074Z,45.43
2019-03-23T12:03:11.349Z,44.55
2019-03-23T12:05:39.978Z,46.95
2019-03-23T12:08:08.265Z,46.05
2019-03-23T12:10:36.518Z,46.13
2019-03-23T12:13:04.805Z,47.20
2019-03-23T12:15:33.063Z,44.20
2019-03-23T12:18:02.120Z,45.20
2019-03-23T12:20:30.405Z,48.50
2019-03-23T12:22:59.503Z,44.77
2019-03-23T12:25:27.717Z,45.12
2019-03-23T12:27:56.575Z,44.05
2019-03-23T12:30:25.609Z,45.75
2019-03-23T12:32:53.891Z,43.80
2019-03-23T12:35:22.622Z,43.38
2019-03-23T12:37:50.898Z,43.15
2019-03-23T12:40:19.161Z,42.58
2019-03-23T12:42:47.436Z,44.08
2019-03-23T12:45:15.861Z,42.73
2019-03-23T12:47:44.144Z,43.42
2019-03-23T12:50:12.393Z,42.20
2019-03-23T12:52:40.681Z,42.13
2019-03-23T12:55:09.306Z,45.48
2019-03-23T12:57:37.593Z,43.65
2019-03-23T13:00:09.104Z,43.20
2019-03-23T13:02:37.459Z,42.00
2019-03-23T13:05:06.785Z,44.98
2019-03-23T13:07:36.416Z,44.23
2019-03-23T13:10:06.219Z,43.60
2019-03-23T13:12:34.505Z,46.33
2019-03-23T13:15:02.842Z,45.12
2019-03-23T13:17:31.132Z,43.10
2019-03-23T13:19:59.457Z,43.92
2019-03-23T13:22:27.757Z,44.35
2019-03-23T13:24:56.011Z,42.58
2019-03-23T13:27:24.295Z,43.17
2019-03-23T13:29:52.553Z,40.35
2019-03-23T13:32:20.838Z,37.42
2019-03-23T13:34:49.097Z,42.43
2019-03-23T13:37:17.375Z,42.53
2019-03-23T13:39:45.636Z,40.90
2019-03-23T13:42:13.896Z,40.95
2019-03-23T13:44:42.180Z,42.85
2019-03-23T13:47:11.311Z,41.30
2019-03-23T13:49:39.590Z,40.95
2019-03-23T13:52:07.851Z,40.88
2019-03-23T13:54:36.135Z,41.33
2019-03-23T13:57:04.466Z,42.08
2019-03-23T13:59:32.748Z,40.05
2019-03-23T14:02:01.006Z,40.78
2019-03-23T14:04:29.295Z,40.58
2019-03-23T14:06:57.566Z,38.90
2019-03-23T14:09:26.877Z,40.30
2019-03-23T14:11:55.925Z,39.50
2019-03-23T14:14:24.197Z,39.65
2019-03-23T14:16:52.460Z,38.65
2019-03-23T14:19:20.749Z,39.75
2019-03-23T14:21:49.021Z,36.95
2019-03-23T14:24:17.298Z,40.55
2019-03-23T14:26:45.557Z,40.08
2019-03-23T14:29:13.843Z,41.58
2019-03-23T14:31:42.103Z,40.63
2019-03-23T14:34:10.389Z,41.02
2019-03-23T14:36:38.652Z,40.73
2019-03-23T14:39:07.204Z,42.05
2019-03-23T14:41:35.467Z,39.98
2019-03-23T14:44:03.746Z,41.85
2019-03-23T14:46:32.009Z,39.20
2019-03-23T14:49:01.881Z,40.95
2019-03-23T14:51:30.323Z,40.00
2019-03-23T14:53:58.609Z,39.98
2019-03-23T14:56:31.475Z,42.23
2019-03-23T14:58:57.455Z,39.27
2019-03-23T15:01:25.707Z,41.02
2019-03-23T15:03:53.993Z,41.70
2019-03-23T15:06:23.024Z,41.65
2019-03-23T15:08:51.308Z,41.33
2019-03-23T15:11:19.813Z,39.85
2019-03-23T15:13:48.094Z,42.15
2019-03-23T15:16:17.034Z,39.75
2019-03-23T15:18:45.315Z,38.45
2019-03-23T15:21:14.146Z,36.15
2019-03-23T15:23:42.430Z,37.00
2019-03-23T15:26:10.700Z,39.53
2019-03-23T15:28:38.958Z,37.13
2019-03-23T15:31:07.234Z,37.30
2019-03-23T15:33:35.489Z,36.88
2019-03-23T15:36:03.779Z,37.80
2019-03-23T15:38:32.402Z,36.42
2019-03-23T15:41:00.678Z,37.75
2019-03-23T15:43:29.015Z,36.53
2019-03-23T15:45:57.296Z,36.93
2019-03-23T15:48:25.558Z,38.33
2019-03-23T15:50:54.212Z,39.80
2019-03-23T15:53:22.470Z,38.50
2019-03-23T15:55:50.750Z,38.00
2019-03-23T15:58:19.086Z,37.95
2019-03-23T16:00:47.367Z,38.83
2019-03-23T16:03:15.627Z,40.40
2019-03-23T16:05:43.905Z,37.60
2019-03-23T16:08:12.162Z,38.02
2019-03-23T16:10:41.212Z,38.80
2019-03-23T16:13:09.469Z,40.38
2019-03-23T16:15:37.756Z,39.78
2019-03-23T16:18:06.015Z,39.00
2019-03-23T16:20:34.301Z,40.50
2019-03-23T16:23:02.566Z,40.85
2019-03-23T16:25:31.435Z,39.25
2019-03-23T16:27:59.677Z,42.50
2019-03-23T16:30:31.897Z,43.50
2019-03-23T16:33:00.157Z,42.73
2019-03-23T16:35:29.008Z,47.13
2019-03-23T16:37:57.932Z,47.00
2019-03-23T16:40:26.210Z,51.30
2019-03-23T16:42:55.038Z,45.43
2019-03-23T16:45:23.314Z,46.02
2019-03-23T16:47:51.578Z,44.40
2019-03-23T16:50:19.859Z,48.10
2019-03-23T16:52:48.114Z,46.50
2019-03-23T16:55:16.393Z,49.77
2019-03-23T16:57:44.650Z,47.83
2019-03-23T17:00:14.173Z,47.05
2019-03-23T17:02:42.431Z,47.30
2019-03-23T17:05:10.714Z,46.37
2019-03-23T17:07:38.970Z,44.48
2019-03-23T17:10:07.250Z,45.40
2019-03-23T17:12:36.349Z,46.53
2019-03-23T17:15:06.734Z,48.10
2019-03-23T17:20:02.698Z,41.73
2019-03-23T17:22:31.534Z,45.85
2019-03-23T17:24:59.792Z,47.38
2019-03-23T17:27:28.076Z,46.48
2019-03-23T17:29:57.181Z,47.78
2019-03-23T17:32:25.466Z,49.03
2019-03-23T17:34:55.062Z,46.63
2019-03-23T17:37:23.341Z,49.03
2019-03-23T17:39:51.602Z,46.95
2019-03-23T17:42:19.880Z,49.20
2019-03-23T17:44:48.910Z,48.33
2019-03-23T17:47:17.187Z,47.80
2019-03-23T17:49:45.454Z,47.48
2019-03-23T17:52:14.304Z,48.40
2019-03-23T17:54:43.345Z,49.88
2019-03-23T17:57:11.613Z,52.67
2019-03-23T17:59:39.888Z,50.63
2019-03-23T18:02:08.162Z,52.58
2019-03-23T18:04:36.424Z,48.08
2019-03-23T18:07:04.961Z,47.10
2019-03-23T18:09:33.992Z,53.78
2019-03-23T18:12:02.271Z,50.05
2019-03-23T18:14:30.533Z,51.33
2019-03-23T18:16:59.382Z,47.70
2019-03-23T18:19:27.643Z,48.85
2019-03-23T18:21:56.845Z,50.43
2019-03-23T18:24:25.099Z,50.23
2019-03-23T18:26:53.945Z,50.00
2019-03-23T18:29:22.201Z,50.90
2019-03-23T18:31:50.488Z,55.17
2019-03-23T18:34:19.315Z,53.68
2019-03-23T18:36:47.604Z,49.55
2019-03-23T18:39:15.861Z,51.60
2019-03-23T18:41:44.914Z,49.60
2019-03-23T18:44:16.441Z,50.33
2019-03-23T18:46:43.163Z,50.58
2019-03-23T18:49:11.423Z,51.68
2019-03-23T18:51:39.712Z,52.93
2019-03-23T18:54:08.533Z,52.00
2019-03-23T18:56:37.580Z,49.40
2019-03-23T18:59:05.840Z,51.35
2019-03-23T19:01:34.118Z,50.23
2019-03-23T19:04:02.374Z,47.73
2019-03-23T19:06:30.655Z,45.30
2019-03-23T19:08:58.915Z,43.68
2019-03-23T19:11:27.184Z,44.63
2019-03-23T19:13:55.437Z,42.08
2019-03-23T19:16:23.718Z,41.45
2019-03-23T19:18:52.548Z,40.83
2019-03-23T19:21:20.813Z,40.30
2019-03-23T19:23:49.962Z,40.92
2019-03-23T19:26:18.215Z,42.25
2019-03-23T19:28:46.486Z,40.92
2019-03-23T19:31:15.320Z,41.73
2019-03-23T19:33:44.268Z,42.80
2019-03-23T19:36:12.520Z,38.48
2019-03-23T19:38:41.372Z,38.60
2019-03-23T19:41:09.630Z,40.83
2019-03-23T19:43:48.355Z,40.23
2019-03-23T19:46:08.664Z,36.85
2019-03-23T19:48:36.944Z,38.58
2019-03-23T19:51:05.198Z,34.65
2019-03-23T19:53:33.478Z,35.28
2019-03-23T19:56:01.738Z,32.83
2019-03-23T19:58:30.018Z,31.35
2019-03-23T20:00:58.277Z,31.42
2019-03-23T20:03:27.226Z,32.20
2019-03-23T20:05:56.254Z,30.17
2019-03-23T20:08:25.603Z,31.10
2019-03-23T20:10:54.067Z,28.47
2019-03-23T20:13:22.634Z,28.95
2019-03-23T20:15:50.888Z,29.87
2019-03-23T20:18:19.172Z,28.67
2019-03-23T20:20:47.425Z,29.37
2019-03-23T20:23:15.710Z,29.50
2019-03-23T20:25:44.735Z,29.15
2019-03-23T20:28:13.019Z,27.22
2019-03-23T20:30:41.286Z,25.52
2019-03-23T20:33:19.109Z,25.25
2019-03-23T20:35:39.530Z,24.65
2019-03-23T20:38:07.823Z,21.15
2019-03-23T20:40:36.071Z,18.30
2019-03-23T20:43:04.352Z,18.10
2019-03-23T20:45:32.613Z,18.05
2019-03-23T20:48:00.910Z,20.52
2019-03-23T20:50:29.148Z,18.87
2019-03-23T20:52:57.428Z,18.12
2019-03-23T20:55:27.877Z,17.62
2019-03-23T21:00:24.628Z,17.05
2019-03-23T21:02:52.936Z,17.60
2019-03-23T21:05:21.162Z,16.48
2019-03-23T21:07:49.433Z,17.67
2019-03-23T21:10:17.685Z,17.32
2019-03-23T21:12:46.705Z,17.67
2019-03-23T21:15:14.956Z,17.12
2019-03-23T21:17:51.085Z,16.82
2019-03-23T21:20:13.220Z,14.90
2019-03-23T21:22:41.502Z,13.88
2019-03-23T21:25:09.749Z,11.10
2019-03-23T21:27:38.007Z,12.63
2019-03-23T21:30:12.248Z,11.08
2019-03-23T21:32:41.174Z,10.48
2019-03-23T21:35:09.457Z,10.68
2019-03-23T21:37:37.710Z,9.80
2019-03-23T21:40:06.261Z,8.58
2019-03-23T21:42:34.509Z,9.23
2019-03-23T21:45:02.784Z,9.93
2019-03-23T21:47:31.032Z,10.80
2019-03-23T21:49:59.305Z,9.05
2019-03-23T21:52:27.561Z,8.98
2019-03-23T21:54:55.828Z,9.28
2019-03-23T21:57:24.079Z,9.18
2019-03-23T21:59:52.369Z,8.43
2019-03-23T22:02:20.620Z,8.80
2019-03-23T22:04:49.462Z,8.33
2019-03-23T22:07:17.707Z,9.18
2019-03-23T22:09:46.001Z,10.03
2019-03-23T22:12:14.726Z,9.35
2019-03-23T22:14:43.009Z,9.68
2019-03-23T22:17:11.263Z,9.23
2019-03-23T22:19:39.537Z,9.48
2019-03-23T22:22:07.791Z,9.78
2019-03-23T22:24:36.315Z,10.68
2019-03-23T22:27:04.567Z,8.75
2019-03-23T22:29:32.843Z,8.43
2019-03-23T22:32:01.839Z,8.53
2019-03-23T22:34:30.114Z,8.43
2019-03-23T22:36:58.365Z,9.35
2019-03-23T22:39:26.641Z,9.33
2019-03-23T22:41:54.900Z,10.18
2019-03-23T22:44:23.188Z,9.60
2019-03-23T22:46:52.004Z,9.63
2019-03-23T22:49:20.285Z,9.60
2019-03-23T22:51:49.078Z,9.18
2019-03-23T22:54:17.347Z,9.53
2019-03-23T22:56:45.595Z,8.85
2019-03-23T22:59:15.407Z,8.88
2019-03-23T23:01:43.830Z,8.90
2019-03-23T23:04:12.105Z,7.95
2019-03-23T23:06:40.358Z,6.53
2019-03-23T23:09:09.599Z,6.15
2019-03-23T23:11:37.850Z,6.25
2019-03-23T23:14:06.689Z,5.95
2019-03-23T23:16:34.937Z,6.12
2019-03-23T23:19:03.208Z,5.67
2019-03-23T23:21:31.787Z,5.22
2019-03-23T23:24:00.052Z,5.45
2019-03-23T23:26:28.307Z,4.72
2019-03-23T23:28:56.581Z,3.95
2019-03-23T23:31:24.832Z,4.80
2019-03-23T23:33:53.109Z,4.37
2019-03-23T23:36:22.706Z,4.60
2019-03-23T23:38:52.551Z,4.15
2019-03-23T23:41:21.006Z,4.03
2019-03-23T23:43:49.853Z,4.42
2019-03-23T23:46:18.112Z,3.33
2019-03-23T23:48:51.180Z,4.17
2019-03-23T23:51:16.360Z,3.62
2019-03-23T23:53:45.025Z,4.03
2019-03-23T23:56:13.302Z,4.35
2019-03-23T23:58:41.555Z,3.95
